sensor_id;sensor_type;location;lat;lon;timestamp;temperature;humidity
51589;DHT22;37671;53.258;6.460;2022-10-31T00:00:55;11.60;99.90
51589;DHT22;37671;53.258;6.460;2022-10-31T00:03:20;11.60;99.90
51589;DHT22;37671;53.258;6.460;2022-10-31T00:05:47;11.60;99.90
51589;DHT22;37671;53.258;6.460;2022-10-31T00:08:13;11.50;99.90
51589;DHT22;37671;53.258;6.460;2022-10-31T00:10:39;11.60;99.90
51589;DHT22;37671;53.258;6.460;2022-10-31T00:13:04;11.50;99.90
51589;DHT22;37671;53.258;6.460;2022-10-31T00:15:30;11.40;99.90
51589;DHT22;37671;53.258;6.460;2022-10-31T00:17:58;11.40;99.90
51589;DHT22;37671;53.258;6.460;2022-10-31T00:20:23;11.40;99.90
51589;DHT22;37671;53.258;6.460;2022-10-31T00:22:49;11.40;99.90
51589;DHT22;37671;53.258;6.460;2022-10-31T00:25:14;11.30;99.90
51589;DHT22;37671;53.258;6.460;2022-10-31T00:27:40;11.30;99.90
51589;DHT22;37671;53.258;6.460;2022-10-31T00:30:06;11.30;99.90
51589;DHT22;37671;53.258;6.460;2022-10-31T06:02:29;9.40;99.90
51589;DHT22;37671;53.258;6.460;2022-10-31T06:05:00;9.40;99.90
51589;DHT22;37671;53.258;6.460;2022-10-31T06:07:26;9.40;99.90
51589;DHT22;37671;53.258;6.460;2022-10-31T06:09:52;9.30;99.90
51589;DHT22;37671;53.258;6.460;2022-10-31T06:12:17;9.30;99.90
51589;DHT22;37671;53.258;6.460;2022-10-31T06:14:43;9.30;99.90
51589;DHT22;37671;53.258;6.460;2022-10-31T06:17:09;9.10;99.90
51589;DHT22;37671;53.258;6.460;2022-10-31T06:19:34;9.20;99.90
51589;DHT22;37671;53.258;6.460;2022-10-31T06:22:00;9.20;99.90
51589;DHT22;37671;53.258;6.460;2022-10-31T06:24:25;9.30;99.90
51589;DHT22;37671;53.258;6.460;2022-10-31T06:26:51;9.30;99.90
51589;DHT22;37671;53.258;6.460;2022-10-31T06:29:16;9.20;99.90
51589;DHT22;37671;53.258;6.460;2022-10-31T06:31:42;9.20;99.90
51589;DHT22;37671;53.258;6.460;2022-10-31T06:34:07;9.20;99.90
51589;DHT22;37671;53.258;6.460;2022-10-31T06:36:33;9.30;99.90
51589;DHT22;37671;53.258;6.460;2022-10-31T06:39:00;9.20;99.90
51589;DHT22;37671;53.258;6.460;2022-10-31T06:41:25;9.20;99.90
51589;DHT22;37671;53.258;6.460;2022-10-31T06:43:51;9.20;99.90
51589;DHT22;37671;53.258;6.460;2022-10-31T06:46:16;9.30;99.90
51589;DHT22;37671;53.258;6.460;2022-10-31T06:48:42;9.30;99.90
51589;DHT22;37671;53.258;6.460;2022-10-31T06:51:10;9.30;99.90
51589;DHT22;37671;53.258;6.460;2022-10-31T06:53:35;9.30;99.90
51589;DHT22;37671;53.258;6.460;2022-10-31T06:56:01;10.00;99.90
51589;DHT22;37671;53.258;6.460;2022-10-31T06:58:26;9.30;99.90
51589;DHT22;37671;53.258;6.460;2022-10-31T07:00:52;9.40;99.90
51589;DHT22;37671;53.258;6.460;2022-10-31T07:03:18;9.30;99.90
51589;DHT22;37671;53.258;6.460;2022-10-31T07:05:45;9.30;99.90
51589;DHT22;37671;53.258;6.460;2022-10-31T07:08:13;9.30;99.90
51589;DHT22;37671;53.258;6.460;2022-10-31T07:10:40;9.30;99.90
51589;DHT22;37671;53.258;6.460;2022-10-31T07:13:12;9.30;99.90
51589;DHT22;37671;53.258;6.460;2022-10-31T07:15:40;9.30;99.90
51589;DHT22;37671;53.258;6.460;2022-10-31T07:18:07;9.40;99.90
51589;DHT22;37671;53.258;6.460;2022-10-31T07:20:33;9.40;99.90
51589;DHT22;37671;53.258;6.460;2022-10-31T07:22:59;9.50;99.90
51589;DHT22;37671;53.258;6.460;2022-10-31T07:25:26;9.50;99.90
51589;DHT22;37671;53.258;6.460;2022-10-31T07:27:51;9.50;99.90
51589;DHT22;37671;53.258;6.460;2022-10-31T07:30:17;9.60;99.90
51589;DHT22;37671;53.258;6.460;2022-10-31T07:32:44;9.70;99.90
51589;DHT22;37671;53.258;6.460;2022-10-31T07:35:13;9.90;99.90
51589;DHT22;37671;53.258;6.460;2022-10-31T07:37:39;10.00;99.90
51589;DHT22;37671;53.258;6.460;2022-10-31T07:40:06;10.10;99.90
51589;DHT22;37671;53.258;6.460;2022-10-31T07:42:37;10.20;99.90
51589;DHT22;37671;53.258;6.460;2022-10-31T07:45:04;10.30;99.90
51589;DHT22;37671;53.258;6.460;2022-10-31T07:47:38;10.40;99.90
51589;DHT22;37671;53.258;6.460;2022-10-31T07:50:04;10.50;99.90
51589;DHT22;37671;53.258;6.460;2022-10-31T07:52:30;10.50;99.90
51589;DHT22;37671;53.258;6.460;2022-10-31T07:54:57;10.60;99.90
51589;DHT22;37671;53.258;6.460;2022-10-31T07:57:22;10.70;99.90
51589;DHT22;37671;53.258;6.460;2022-10-31T07:59:48;10.80;99.90
51589;DHT22;37671;53.258;6.460;2022-10-31T08:02:13;10.90;99.90
51589;DHT22;37671;53.258;6.460;2022-10-31T08:04:39;11.00;99.90
51589;DHT22;37671;53.258;6.460;2022-10-31T08:07:06;11.20;99.90
51589;DHT22;37671;53.258;6.460;2022-10-31T08:09:31;11.20;99.90
51589;DHT22;37671;53.258;6.460;2022-10-31T08:11:57;11.30;99.90
51589;DHT22;37671;53.258;6.460;2022-10-31T08:14:22;11.30;99.90
51589;DHT22;37671;53.258;6.460;2022-10-31T08:16:48;11.40;99.90
51589;DHT22;37671;53.258;6.460;2022-10-31T08:19:14;11.50;99.90
51589;DHT22;37671;53.258;6.460;2022-10-31T08:21:39;12.10;99.90
51589;DHT22;37671;53.258;6.460;2022-10-31T08:24:06;11.60;99.90
51589;DHT22;37671;53.258;6.460;2022-10-31T08:26:32;11.60;99.90
51589;DHT22;37671;53.258;6.460;2022-10-31T08:28:58;11.80;99.90
51589;DHT22;37671;53.258;6.460;2022-10-31T08:31:23;11.60;99.90
51589;DHT22;37671;53.258;6.460;2022-10-31T08:33:52;11.60;99.90
51589;DHT22;37671;53.258;6.460;2022-10-31T08:36:18;12.40;99.90
51589;DHT22;37671;53.258;6.460;2022-10-31T08:38:44;11.60;99.90
51589;DHT22;37671;53.258;6.460;2022-10-31T08:41:11;11.60;99.90
51589;DHT22;37671;53.258;6.460;2022-10-31T08:43:37;12.00;99.90
51589;DHT22;37671;53.258;6.460;2022-10-31T08:46:02;11.70;99.90
51589;DHT22;37671;53.258;6.460;2022-10-31T08:48:29;11.70;99.90
51589;DHT22;37671;53.258;6.460;2022-10-31T08:50:59;11.70;99.90
51589;DHT22;37671;53.258;6.460;2022-10-31T08:53:25;13.20;99.90
51589;DHT22;37671;53.258;6.460;2022-10-31T08:55:54;11.90;99.90
51589;DHT22;37671;53.258;6.460;2022-10-31T08:58:20;11.90;99.90
51589;DHT22;37671;53.258;6.460;2022-10-31T09:00:48;12.00;99.90
51589;DHT22;37671;53.258;6.460;2022-10-31T09:03:20;12.10;99.90
51589;DHT22;37671;53.258;6.460;2022-10-31T09:05:46;12.80;99.90
51589;DHT22;37671;53.258;6.460;2022-10-31T09:08:12;12.40;99.90
51589;DHT22;37671;53.258;6.460;2022-10-31T09:10:38;13.50;99.90
51589;DHT22;37671;53.258;6.460;2022-10-31T09:13:10;12.70;99.90
51589;DHT22;37671;53.258;6.460;2022-10-31T09:15:37;12.90;99.90
51589;DHT22;37671;53.258;6.460;2022-10-31T09:18:04;14.10;99.90
51589;DHT22;37671;53.258;6.460;2022-10-31T09:20:31;12.70;99.90
51589;DHT22;37671;53.258;6.460;2022-10-31T09:22:59;12.60;99.90
51589;DHT22;37671;53.258;6.460;2022-10-31T09:25:25;12.70;99.90
51589;DHT22;37671;53.258;6.460;2022-10-31T09:27:58;13.60;99.90
51589;DHT22;37671;53.258;6.460;2022-10-31T09:30:25;12.90;99.90
51589;DHT22;37671;53.258;6.460;2022-10-31T09:33:05;13.00;99.90
51589;DHT22;37671;53.258;6.460;2022-10-31T09:35:32;13.10;99.90
51589;DHT22;37671;53.258;6.460;2022-10-31T09:38:00;13.10;99.90
51589;DHT22;37671;53.258;6.460;2022-10-31T09:43:21;13.20;99.90
51589;DHT22;37671;53.258;6.460;2022-10-31T09:48:40;13.20;99.90
51589;DHT22;37671;53.258;6.460;2022-10-31T09:51:12;13.20;99.90
51589;DHT22;37671;53.258;6.460;2022-10-31T09:53:51;13.40;99.90
51589;DHT22;37671;53.258;6.460;2022-10-31T09:56:22;13.50;99.90
51589;DHT22;37671;53.258;6.460;2022-10-31T09:59:00;14.80;99.90
51589;DHT22;37671;53.258;6.460;2022-10-31T10:01:54;13.50;99.90
51589;DHT22;37671;53.258;6.460;2022-10-31T10:04:28;13.50;99.90
51589;DHT22;37671;53.258;6.460;2022-10-31T10:06:56;13.60;99.90
51589;DHT22;37671;53.258;6.460;2022-10-31T10:09:25;13.90;99.90
51589;DHT22;37671;53.258;6.460;2022-10-31T10:25:24;14.40;99.90
51589;DHT22;37671;53.258;6.460;2022-10-31T10:28:11;14.70;99.90
51589;DHT22;37671;53.258;6.460;2022-10-31T10:30:59;14.60;99.90
51589;DHT22;37671;53.258;6.460;2022-10-31T10:33:39;14.60;99.90
51589;DHT22;37671;53.258;6.460;2022-10-31T10:36:22;15.50;99.90
51589;DHT22;37671;53.258;6.460;2022-10-31T10:39:02;15.10;99.90
51589;DHT22;37671;53.258;6.460;2022-10-31T10:41:33;14.70;99.90
51589;DHT22;37671;53.258;6.460;2022-10-31T10:43:58;14.80;99.90
51589;DHT22;37671;53.258;6.460;2022-10-31T10:51:52;14.80;99.90
51589;DHT22;37671;53.258;6.460;2022-10-31T10:54:49;14.80;99.90
51589;DHT22;37671;53.258;6.460;2022-10-31T10:57:59;14.90;99.90
51589;DHT22;37671;53.258;6.460;2022-10-31T11:00:29;14.70;99.90
51589;DHT22;37671;53.258;6.460;2022-10-31T11:02:56;14.80;99.90
51589;DHT22;37671;53.258;6.460;2022-10-31T11:05:30;15.80;99.90
51589;DHT22;37671;53.258;6.460;2022-10-31T11:07:58;14.90;99.90
51589;DHT22;37671;53.258;6.460;2022-10-31T11:10:23;14.80;99.90
51589;DHT22;37671;53.258;6.460;2022-10-31T11:15:27;14.90;99.90
51589;DHT22;37671;53.258;6.460;2022-10-31T11:17:56;14.90;99.90
51589;DHT22;37671;53.258;6.460;2022-10-31T11:20:26;15.30;99.90
51589;DHT22;37671;53.258;6.460;2022-10-31T11:23:10;15.00;99.90
51589;DHT22;37671;53.258;6.460;2022-10-31T11:25:48;15.10;99.90
51589;DHT22;37671;53.258;6.460;2022-10-31T11:28:14;14.90;99.90
51589;DHT22;37671;53.258;6.460;2022-10-31T11:30:55;15.30;99.90
51589;DHT22;37671;53.258;6.460;2022-10-31T11:35:53;14.80;99.90
51589;DHT22;37671;53.258;6.460;2022-10-31T11:38:23;15.00;99.90
51589;DHT22;37671;53.258;6.460;2022-10-31T11:40:54;14.70;99.90
51589;DHT22;37671;53.258;6.460;2022-10-31T11:43:21;14.60;99.90
51589;DHT22;37671;53.258;6.460;2022-10-31T11:45:48;14.50;99.90
51589;DHT22;37671;53.258;6.460;2022-10-31T11:48:19;15.40;99.90
51589;DHT22;37671;53.258;6.460;2022-10-31T11:50:52;14.50;99.90
51589;DHT22;37671;53.258;6.460;2022-10-31T11:53:25;14.60;99.90
51589;DHT22;37671;53.258;6.460;2022-10-31T11:58:34;14.70;99.90
51589;DHT22;37671;53.258;6.460;2022-10-31T12:01:00;14.80;99.90
51589;DHT22;37671;53.258;6.460;2022-10-31T12:03:38;14.80;99.90
51589;DHT22;37671;53.258;6.460;2022-10-31T12:06:51;14.90;99.90
51589;DHT22;37671;53.258;6.460;2022-10-31T12:09:00;14.90;99.90
51589;DHT22;37671;53.258;6.460;2022-10-31T12:16:51;15.10;99.90
51589;DHT22;37671;53.258;6.460;2022-10-31T12:32:47;15.10;99.90
51589;DHT22;37671;53.258;6.460;2022-10-31T12:35:30;15.10;99.90
51589;DHT22;37671;53.258;6.460;2022-10-31T12:46:23;15.10;99.90
51589;DHT22;37671;53.258;6.460;2022-10-31T12:51:48;15.20;99.90
51589;DHT22;37671;53.258;6.460;2022-10-31T13:10:42;15.30;99.90
51589;DHT22;37671;53.258;6.460;2022-10-31T13:16:01;15.20;99.90
51589;DHT22;37671;53.258;6.460;2022-10-31T13:18:32;15.20;99.90
51589;DHT22;37671;53.258;6.460;2022-10-31T13:21:03;15.30;99.90
51589;DHT22;37671;53.258;6.460;2022-10-31T13:23:33;15.20;99.90
51589;DHT22;37671;53.258;6.460;2022-10-31T13:26:03;15.20;99.90
51589;DHT22;37671;53.258;6.460;2022-10-31T13:28:57;15.10;99.90
51589;DHT22;37671;53.258;6.460;2022-10-31T13:31:25;15.20;99.90
51589;DHT22;37671;53.258;6.460;2022-10-31T13:34:19;15.10;99.90
51589;DHT22;37671;53.258;6.460;2022-10-31T13:37:04;15.10;99.90
51589;DHT22;37671;53.258;6.460;2022-10-31T13:39:56;15.10;99.90
51589;DHT22;37671;53.258;6.460;2022-10-31T13:45:20;15.40;99.90
51589;DHT22;37671;53.258;6.460;2022-10-31T13:47:58;15.30;99.90
51589;DHT22;37671;53.258;6.460;2022-10-31T13:50:29;15.40;99.90
51589;DHT22;37671;53.258;6.460;2022-10-31T13:53:21;15.40;99.90
51589;DHT22;37671;53.258;6.460;2022-10-31T13:55:49;15.50;99.90
51589;DHT22;37671;53.258;6.460;2022-10-31T13:58:26;15.70;99.90
51589;DHT22;37671;53.258;6.460;2022-10-31T14:03:38;15.80;99.90
51589;DHT22;37671;53.258;6.460;2022-10-31T14:06:06;15.70;99.90
51589;DHT22;37671;53.258;6.460;2022-10-31T14:08:34;15.60;99.90
51589;DHT22;37671;53.258;6.460;2022-10-31T14:11:02;15.50;99.90
51589;DHT22;37671;53.258;6.460;2022-10-31T14:13:35;16.20;99.90
51589;DHT22;37671;53.258;6.460;2022-10-31T14:16:18;15.50;99.90
51589;DHT22;37671;53.258;6.460;2022-10-31T14:18:48;15.30;99.90
51589;DHT22;37671;53.258;6.460;2022-10-31T14:23:50;15.10;99.90
51589;DHT22;37671;53.258;6.460;2022-10-31T14:28:49;15.00;99.90
51589;DHT22;37671;53.258;6.460;2022-10-31T14:31:29;15.30;99.90
51589;DHT22;37671;53.258;6.460;2022-10-31T14:34:02;14.90;99.90
51589;DHT22;37671;53.258;6.460;2022-10-31T14:50:48;14.80;99.90
51589;DHT22;37671;53.258;6.460;2022-10-31T14:53:27;14.80;99.90
51589;DHT22;37671;53.258;6.460;2022-10-31T14:55:56;14.80;99.90
51589;DHT22;37671;53.258;6.460;2022-10-31T14:58:45;14.80;99.90
51589;DHT22;37671;53.258;6.460;2022-10-31T15:01:31;14.70;99.90
51589;DHT22;37671;53.258;6.460;2022-10-31T15:04:22;14.70;99.90
51589;DHT22;37671;53.258;6.460;2022-10-31T15:07:02;14.70;99.90
51589;DHT22;37671;53.258;6.460;2022-10-31T15:09:35;14.60;99.90
51589;DHT22;37671;53.258;6.460;2022-10-31T15:12:28;14.90;99.90
51589;DHT22;37671;53.258;6.460;2022-10-31T15:14:54;14.60;99.90
51589;DHT22;37671;53.258;6.460;2022-10-31T15:17:22;15.00;99.90
51589;DHT22;37671;53.258;6.460;2022-10-31T15:19:49;14.50;99.90
51589;DHT22;37671;53.258;6.460;2022-10-31T15:22:18;14.60;99.90
51589;DHT22;37671;53.258;6.460;2022-10-31T15:24:45;14.50;99.90
51589;DHT22;37671;53.258;6.460;2022-10-31T15:27:13;15.20;99.90
51589;DHT22;37671;53.258;6.460;2022-10-31T15:29:49;14.40;99.90
51589;DHT22;37671;53.258;6.460;2022-10-31T15:32:28;14.40;99.90
51589;DHT22;37671;53.258;6.460;2022-10-31T15:34:55;14.40;99.90
51589;DHT22;37671;53.258;6.460;2022-10-31T15:37:23;14.30;99.90
51589;DHT22;37671;53.258;6.460;2022-10-31T15:39:50;14.30;99.90
51589;DHT22;37671;53.258;6.460;2022-10-31T15:42:39;14.20;99.90
51589;DHT22;37671;53.258;6.460;2022-10-31T15:47:37;14.10;99.90
51589;DHT22;37671;53.258;6.460;2022-10-31T15:50:06;14.10;99.90
51589;DHT22;37671;53.258;6.460;2022-10-31T15:52:45;14.00;99.90
51589;DHT22;37671;53.258;6.460;2022-10-31T15:55:24;14.40;99.90
51589;DHT22;37671;53.258;6.460;2022-10-31T15:57:58;14.00;99.90
51589;DHT22;37671;53.258;6.460;2022-10-31T16:00:29;14.00;99.90
51589;DHT22;37671;53.258;6.460;2022-10-31T16:05:50;13.90;99.90
51589;DHT22;37671;53.258;6.460;2022-10-31T16:08:31;13.90;99.90
51589;DHT22;37671;53.258;6.460;2022-10-31T16:11:15;13.80;99.90
51589;DHT22;37671;53.258;6.460;2022-10-31T16:16:22;13.80;99.90
51589;DHT22;37671;53.258;6.460;2022-10-31T16:18:49;13.80;99.90
51589;DHT22;37671;53.258;6.460;2022-10-31T16:21:43;13.80;99.90
51589;DHT22;37671;53.258;6.460;2022-10-31T16:24:20;13.80;99.90
51589;DHT22;37671;53.258;6.460;2022-10-31T16:26:49;13.80;99.90
51589;DHT22;37671;53.258;6.460;2022-10-31T16:29:26;13.70;99.90
51589;DHT22;37671;53.258;6.460;2022-10-31T16:31:52;13.70;99.90
51589;DHT22;37671;53.258;6.460;2022-10-31T16:34:21;13.70;99.90
51589;DHT22;37671;53.258;6.460;2022-10-31T16:36:47;13.70;99.90
51589;DHT22;37671;53.258;6.460;2022-10-31T16:39:14;13.70;99.90
51589;DHT22;37671;53.258;6.460;2022-10-31T16:41:41;13.70;99.90
51589;DHT22;37671;53.258;6.460;2022-10-31T16:44:25;13.90;99.90
51589;DHT22;37671;53.258;6.460;2022-10-31T16:49:37;13.60;99.90
51589;DHT22;37671;53.258;6.460;2022-10-31T16:52:02;13.70;99.90
51589;DHT22;37671;53.258;6.460;2022-10-31T16:54:31;13.60;99.90
51589;DHT22;37671;53.258;6.460;2022-10-31T16:56:58;13.60;99.90
51589;DHT22;37671;53.258;6.460;2022-10-31T16:59:25;13.60;99.90
51589;DHT22;37671;53.258;6.460;2022-10-31T17:01:51;13.60;99.90
51589;DHT22;37671;53.258;6.460;2022-10-31T17:04:16;13.60;99.90
51589;DHT22;37671;53.258;6.460;2022-10-31T17:06:42;13.60;99.90
51589;DHT22;37671;53.258;6.460;2022-10-31T17:09:08;13.60;99.90
51589;DHT22;37671;53.258;6.460;2022-10-31T17:11:34;13.50;99.90
51589;DHT22;37671;53.258;6.460;2022-10-31T17:14:00;13.50;99.90
51589;DHT22;37671;53.258;6.460;2022-10-31T17:16:26;13.50;99.90
51589;DHT22;37671;53.258;6.460;2022-10-31T17:18:51;13.50;99.90
51589;DHT22;37671;53.258;6.460;2022-10-31T17:21:21;13.50;99.90
51589;DHT22;37671;53.258;6.460;2022-10-31T17:23:48;13.50;99.90
51589;DHT22;37671;53.258;6.460;2022-10-31T17:26:14;13.50;99.90
51589;DHT22;37671;53.258;6.460;2022-10-31T17:28:40;13.50;99.90
51589;DHT22;37671;53.258;6.460;2022-10-31T17:31:06;13.50;99.90
51589;DHT22;37671;53.258;6.460;2022-10-31T17:33:33;13.50;99.90
51589;DHT22;37671;53.258;6.460;2022-10-31T17:36:01;13.50;99.90
51589;DHT22;37671;53.258;6.460;2022-10-31T17:38:27;13.50;99.90
51589;DHT22;37671;53.258;6.460;2022-10-31T17:40:52;13.50;99.90
51589;DHT22;37671;53.258;6.460;2022-10-31T17:43:18;13.50;99.90
51589;DHT22;37671;53.258;6.460;2022-10-31T17:45:43;13.40;99.90
51589;DHT22;37671;53.258;6.460;2022-10-31T17:48:11;14.40;99.90
51589;DHT22;37671;53.258;6.460;2022-10-31T17:50:37;13.40;99.90
51589;DHT22;37671;53.258;6.460;2022-10-31T17:53:03;13.40;99.90
51589;DHT22;37671;53.258;6.460;2022-10-31T17:55:28;13.40;99.90
51589;DHT22;37671;53.258;6.460;2022-10-31T17:57:55;13.40;99.90
51589;DHT22;37671;53.258;6.460;2022-10-31T18:00:20;13.40;99.90
51589;DHT22;37671;53.258;6.460;2022-10-31T18:02:48;13.40;99.90
51589;DHT22;37671;53.258;6.460;2022-10-31T18:05:14;13.30;99.90
51589;DHT22;37671;53.258;6.460;2022-10-31T18:07:40;13.40;99.90
51589;DHT22;37671;53.258;6.460;2022-10-31T18:10:06;13.40;99.90
51589;DHT22;37671;53.258;6.460;2022-10-31T18:12:35;13.40;99.90
51589;DHT22;37671;53.258;6.460;2022-10-31T18:15:00;13.40;99.90
51589;DHT22;37671;53.258;6.460;2022-10-31T18:17:26;13.50;99.90
51589;DHT22;37671;53.258;6.460;2022-10-31T18:19:51;13.40;99.90
51589;DHT22;37671;53.258;6.460;2022-10-31T18:22:17;13.50;99.90
51589;DHT22;37671;53.258;6.460;2022-10-31T18:24:42;13.40;99.90
51589;DHT22;37671;53.258;6.460;2022-10-31T18:27:08;13.40;99.90
51589;DHT22;37671;53.258;6.460;2022-10-31T18:29:34;13.40;99.90
51589;DHT22;37671;53.258;6.460;2022-10-31T18:32:00;14.30;99.90
51589;DHT22;37671;53.258;6.460;2022-10-31T18:34:25;13.40;99.90
51589;DHT22;37671;53.258;6.460;2022-10-31T18:36:51;13.40;99.90
51589;DHT22;37671;53.258;6.460;2022-10-31T18:39:17;13.50;99.90
51589;DHT22;37671;53.258;6.460;2022-10-31T18:41:43;13.40;99.90
51589;DHT22;37671;53.258;6.460;2022-10-31T18:44:08;13.40;99.90
51589;DHT22;37671;53.258;6.460;2022-10-31T18:46:34;13.40;99.90
51589;DHT22;37671;53.258;6.460;2022-10-31T18:49:01;13.40;99.90
51589;DHT22;37671;53.258;6.460;2022-10-31T18:51:27;13.40;99.90
51589;DHT22;37671;53.258;6.460;2022-10-31T18:53:58;13.30;99.90
51589;DHT22;37671;53.258;6.460;2022-10-31T18:56:24;13.30;99.90
51589;DHT22;37671;53.258;6.460;2022-10-31T18:58:50;13.30;99.90
51589;DHT22;37671;53.258;6.460;2022-10-31T19:01:17;13.20;99.90
51589;DHT22;37671;53.258;6.460;2022-10-31T19:03:44;13.20;99.90
51589;DHT22;37671;53.258;6.460;2022-10-31T19:06:10;13.10;99.90
51589;DHT22;37671;53.258;6.460;2022-10-31T19:08:39;13.20;99.90
51589;DHT22;37671;53.258;6.460;2022-10-31T19:11:06;13.10;99.90
51589;DHT22;37671;53.258;6.460;2022-10-31T19:13:34;13.10;99.90
51589;DHT22;37671;53.258;6.460;2022-10-31T19:16:14;13.10;99.90
51589;DHT22;37671;53.258;6.460;2022-10-31T19:18:41;13.00;99.90
51589;DHT22;37671;53.258;6.460;2022-10-31T19:21:11;13.40;99.90
51589;DHT22;37671;53.258;6.460;2022-10-31T19:23:37;13.10;99.90
51589;DHT22;37671;53.258;6.460;2022-10-31T19:26:03;13.10;99.90
51589;DHT22;37671;53.258;6.460;2022-10-31T19:28:30;13.10;99.90
51589;DHT22;37671;53.258;6.460;2022-10-31T19:30:57;13.10;99.90
51589;DHT22;37671;53.258;6.460;2022-10-31T19:33:23;13.10;99.90
51589;DHT22;37671;53.258;6.460;2022-10-31T19:35:51;13.20;99.90
51589;DHT22;37671;53.258;6.460;2022-10-31T19:38:17;13.10;99.90
51589;DHT22;37671;53.258;6.460;2022-10-31T19:40:44;13.40;99.90
51589;DHT22;37671;53.258;6.460;2022-10-31T19:43:09;13.10;99.90
51589;DHT22;37671;53.258;6.460;2022-10-31T19:45:35;13.00;99.90
51589;DHT22;37671;53.258;6.460;2022-10-31T19:48:01;13.00;99.90
51589;DHT22;37671;53.258;6.460;2022-10-31T19:50:26;13.00;99.90
51589;DHT22;37671;53.258;6.460;2022-10-31T19:52:53;13.00;99.90
51589;DHT22;37671;53.258;6.460;2022-10-31T19:55:18;13.30;99.90
51589;DHT22;37671;53.258;6.460;2022-10-31T19:57:47;12.90;99.90
51589;DHT22;37671;53.258;6.460;2022-10-31T20:00:16;12.40;99.90
51589;DHT22;37671;53.258;6.460;2022-10-31T20:02:42;12.90;99.90
51589;DHT22;37671;53.258;6.460;2022-10-31T20:05:07;13.40;99.90
51589;DHT22;37671;53.258;6.460;2022-10-31T20:07:33;12.90;99.90
51589;DHT22;37671;53.258;6.460;2022-10-31T20:09:59;13.00;99.90
51589;DHT22;37671;53.258;6.460;2022-10-31T20:12:24;13.50;99.90
51589;DHT22;37671;53.258;6.460;2022-10-31T20:14:50;12.90;99.90
51589;DHT22;37671;53.258;6.460;2022-10-31T20:17:15;13.10;99.90
51589;DHT22;37671;53.258;6.460;2022-10-31T20:19:41;13.20;99.90
51589;DHT22;37671;53.258;6.460;2022-10-31T20:22:06;12.90;99.90
51589;DHT22;37671;53.258;6.460;2022-10-31T20:24:32;12.80;99.90
51589;DHT22;37671;53.258;6.460;2022-10-31T20:26:58;12.80;99.90
51589;DHT22;37671;53.258;6.460;2022-10-31T20:29:23;13.00;99.90
51589;DHT22;37671;53.258;6.460;2022-10-31T20:31:49;12.80;99.90
51589;DHT22;37671;53.258;6.460;2022-10-31T20:34:14;13.20;99.90
51589;DHT22;37671;53.258;6.460;2022-10-31T20:36:40;12.90;99.90
51589;DHT22;37671;53.258;6.460;2022-10-31T20:39:07;12.70;99.90
51589;DHT22;37671;53.258;6.460;2022-10-31T20:41:35;12.60;99.90
51589;DHT22;37671;53.258;6.460;2022-10-31T20:44:02;12.70;99.90
51589;DHT22;37671;53.258;6.460;2022-10-31T20:46:27;12.60;99.90
51589;DHT22;37671;53.258;6.460;2022-10-31T20:48:54;14.10;99.90
51589;DHT22;37671;53.258;6.460;2022-10-31T20:51:24;13.40;99.90
51589;DHT22;37671;53.258;6.460;2022-10-31T20:53:53;12.70;99.90
51589;DHT22;37671;53.258;6.460;2022-10-31T20:56:21;13.90;99.90
51589;DHT22;37671;53.258;6.460;2022-10-31T20:58:48;12.70;99.90
51589;DHT22;37671;53.258;6.460;2022-10-31T21:01:18;13.90;99.90
51589;DHT22;37671;53.258;6.460;2022-10-31T21:03:44;12.70;99.90
51589;DHT22;37671;53.258;6.460;2022-10-31T21:06:11;12.70;99.90
51589;DHT22;37671;53.258;6.460;2022-10-31T21:08:37;12.70;99.90
51589;DHT22;37671;53.258;6.460;2022-10-31T21:11:14;12.60;99.90
51589;DHT22;37671;53.258;6.460;2022-10-31T21:13:41;12.70;99.90
51589;DHT22;37671;53.258;6.460;2022-10-31T21:16:10;12.70;99.90
51589;DHT22;37671;53.258;6.460;2022-10-31T21:18:37;12.80;99.90
51589;DHT22;37671;53.258;6.460;2022-10-31T21:21:33;13.70;99.90
51589;DHT22;37671;53.258;6.460;2022-10-31T21:24:05;12.80;99.90
51589;DHT22;37671;53.258;6.460;2022-10-31T21:26:34;12.90;99.90
51589;DHT22;37671;53.258;6.460;2022-10-31T21:29:00;12.80;99.90
51589;DHT22;37671;53.258;6.460;2022-10-31T21:31:26;12.80;99.90
51589;DHT22;37671;53.258;6.460;2022-10-31T21:33:53;12.90;99.90
51589;DHT22;37671;53.258;6.460;2022-10-31T21:36:19;13.50;99.90
51589;DHT22;37671;53.258;6.460;2022-10-31T21:38:51;13.20;99.90
51589;DHT22;37671;53.258;6.460;2022-10-31T21:41:18;12.80;99.90
51589;DHT22;37671;53.258;6.460;2022-10-31T21:43:47;12.80;99.90
51589;DHT22;37671;53.258;6.460;2022-10-31T21:46:16;12.80;99.90
51589;DHT22;37671;53.258;6.460;2022-10-31T21:48:42;12.80;99.90
51589;DHT22;37671;53.258;6.460;2022-10-31T21:51:31;12.80;99.90
51589;DHT22;37671;53.258;6.460;2022-10-31T21:53:57;12.80;99.90
51589;DHT22;37671;53.258;6.460;2022-10-31T21:56:42;13.80;99.90
51589;DHT22;37671;53.258;6.460;2022-10-31T21:59:07;12.90;99.90
51589;DHT22;37671;53.258;6.460;2022-10-31T22:01:33;12.90;99.90
51589;DHT22;37671;53.258;6.460;2022-10-31T22:04:00;12.80;99.90
51589;DHT22;37671;53.258;6.460;2022-10-31T22:06:26;12.90;99.90
51589;DHT22;37671;53.258;6.460;2022-10-31T22:08:55;12.90;99.90
51589;DHT22;37671;53.258;6.460;2022-10-31T22:11:22;12.90;99.90
51589;DHT22;37671;53.258;6.460;2022-10-31T22:13:48;13.60;99.90
51589;DHT22;37671;53.258;6.460;2022-10-31T22:16:20;12.90;99.90
51589;DHT22;37671;53.258;6.460;2022-10-31T22:18:46;12.90;99.90
51589;DHT22;37671;53.258;6.460;2022-10-31T22:21:18;13.00;99.90
51589;DHT22;37671;53.258;6.460;2022-10-31T22:23:48;12.80;99.90
51589;DHT22;37671;53.258;6.460;2022-10-31T22:26:14;12.80;99.90
51589;DHT22;37671;53.258;6.460;2022-10-31T22:28:42;12.90;99.90
51589;DHT22;37671;53.258;6.460;2022-10-31T22:31:09;13.10;99.90
51589;DHT22;37671;53.258;6.460;2022-10-31T22:33:35;12.90;99.90
51589;DHT22;37671;53.258;6.460;2022-10-31T22:36:06;13.30;99.90
51589;DHT22;37671;53.258;6.460;2022-10-31T22:38:33;12.80;99.90
51589;DHT22;37671;53.258;6.460;2022-10-31T22:41:00;12.90;99.90
51589;DHT22;37671;53.258;6.460;2022-10-31T22:43:26;12.90;99.90
51589;DHT22;37671;53.258;6.460;2022-10-31T22:46:00;12.90;99.90
51589;DHT22;37671;53.258;6.460;2022-10-31T22:51:09;12.90;99.90
51589;DHT22;37671;53.258;6.460;2022-10-31T22:57:16;13.00;99.90
51589;DHT22;37671;53.258;6.460;2022-10-31T22:59:41;13.00;99.90
51589;DHT22;37671;53.258;6.460;2022-10-31T23:02:07;12.90;99.90
51589;DHT22;37671;53.258;6.460;2022-10-31T23:04:32;12.90;99.90
51589;DHT22;37671;53.258;6.460;2022-10-31T23:06:58;12.90;99.90
51589;DHT22;37671;53.258;6.460;2022-10-31T23:09:23;12.90;99.90
51589;DHT22;37671;53.258;6.460;2022-10-31T23:11:49;12.90;99.90
51589;DHT22;37671;53.258;6.460;2022-10-31T23:14:18;13.00;99.90
51589;DHT22;37671;53.258;6.460;2022-10-31T23:16:53;12.90;99.90
51589;DHT22;37671;53.258;6.460;2022-10-31T23:19:22;13.00;99.90